createdAt,value
2022-08-16T00:01:28.882Z,64.32
2022-08-16T00:04:02.124Z,62.73
2022-08-16T00:06:33.235Z,56.86
2022-08-16T00:09:01.165Z,56.32
2022-08-16T00:11:29.236Z,57.80
2022-08-16T00:13:57.730Z,59.39
2022-08-16T00:17:05.388Z,60.78
2022-08-16T00:19:22.669Z,64.69
2022-08-16T00:21:54.500Z,62.17
2022-08-16T00:24:31.150Z,56.65
2022-08-16T00:27:03.353Z,56.30
2022-08-16T00:29:31.671Z,57.76
2022-08-16T00:32:05.567Z,59.36
2022-08-16T00:34:43.922Z,61.11
2022-08-16T00:37:16.886Z,65.22
2022-08-16T00:39:47.676Z,63.12
2022-08-16T00:42:29.550Z,57.57
2022-08-16T00:45:08.044Z,56.64
2022-08-16T00:47:42.522Z,58.17
2022-08-16T00:50:35.980Z,59.71
2022-08-16T00:53:12.216Z,61.32
2022-08-16T00:55:44.618Z,65.52
2022-08-16T00:58:16.235Z,63.11
2022-08-16T01:00:54.354Z,57.52
2022-08-16T01:03:30.429Z,56.44
2022-08-16T01:06:40.296Z,57.78
2022-08-16T01:08:55.157Z,59.64
2022-08-16T01:11:27.135Z,61.15
2022-08-16T01:14:10.486Z,64.84
2022-08-16T01:16:40.766Z,63.12
2022-08-16T01:19:25.874Z,57.60
2022-08-16T01:22:58.860Z,57.26
2022-08-16T01:24:59.676Z,58.24
2022-08-16T01:27:44.853Z,59.96
2022-08-16T01:30:19.435Z,61.42
2022-08-16T01:33:01.847Z,65.75
2022-08-16T01:35:41.990Z,63.45
2022-08-16T01:38:33.431Z,57.12
2022-08-16T01:41:04.839Z,56.62
2022-08-16T01:43:34.254Z,58.53
2022-08-16T01:46:37.732Z,60.52
2022-08-16T01:48:56.051Z,64.21
2022-08-16T01:51:27.210Z,61.47
2022-08-16T01:53:56.151Z,55.92
2022-08-16T01:56:25.548Z,55.65
2022-08-16T01:58:55.520Z,57.33
2022-08-16T02:01:26.246Z,59.14
2022-08-16T02:03:58.483Z,60.84
2022-08-16T02:06:34.717Z,64.40
2022-08-16T02:09:11.925Z,61.82
2022-08-16T02:11:47.500Z,56.81
2022-08-16T02:14:18.001Z,56.12
2022-08-16T02:16:46.487Z,57.37
2022-08-16T02:19:15.882Z,59.13
2022-08-16T02:22:09.186Z,60.44
2022-08-16T02:24:46.078Z,64.93
2022-08-16T02:27:14.871Z,62.18
2022-08-16T02:29:43.245Z,57.46
2022-08-16T02:32:49.000Z,56.07
2022-08-16T02:35:02.030Z,57.65
2022-08-16T02:37:39.773Z,59.58
2022-08-16T02:40:18.898Z,61.08
2022-08-16T02:42:50.050Z,65.22
2022-08-16T02:45:24.780Z,62.77
2022-08-16T02:48:00.978Z,57.70
2022-08-16T02:50:54.029Z,57.20
2022-08-16T02:53:32.084Z,58.71
2022-08-16T02:56:00.638Z,60.34
2022-08-16T02:58:29.218Z,61.92
2022-08-16T03:00:58.591Z,65.72
2022-08-16T03:04:41.434Z,63.84
2022-08-16T03:06:41.831Z,57.70
2022-08-16T03:09:10.699Z,56.92
2022-08-16T03:11:42.323Z,58.94
2022-08-16T03:14:11.592Z,60.61
2022-08-16T03:16:42.171Z,63.91
2022-08-16T03:19:48.134Z,62.49
2022-08-16T03:22:28.403Z,57.20
2022-08-16T03:25:02.042Z,56.62
2022-08-16T03:27:32.530Z,58.24
2022-08-16T03:30:16.709Z,59.59
2022-08-16T03:32:47.972Z,61.41
2022-08-16T03:35:23.801Z,65.58
2022-08-16T03:38:03.937Z,63.31
2022-08-16T03:40:35.470Z,57.08
2022-08-16T03:43:20.538Z,56.55
2022-08-16T03:45:52.319Z,58.16
2022-08-16T03:48:36.987Z,59.97
2022-08-16T03:51:12.182Z,61.12
2022-08-16T03:53:42.774Z,65.33
2022-08-16T03:56:19.830Z,63.52
2022-08-16T03:58:50.819Z,57.87
2022-08-16T04:01:22.869Z,57.15
2022-08-16T04:03:52.782Z,58.68
2022-08-16T04:06:21.941Z,60.35
2022-08-16T04:08:50.847Z,63.70
2022-08-16T04:11:18.958Z,62.69
2022-08-16T04:13:58.848Z,57.43
2022-08-16T04:16:32.385Z,56.65
2022-08-16T04:19:04.679Z,58.06
2022-08-16T04:21:35.572Z,60.09
2022-08-16T04:24:07.925Z,61.60
2022-08-16T04:26:36.243Z,65.22
2022-08-16T04:29:16.659Z,62.64
2022-08-16T04:31:56.385Z,57.59
2022-08-16T04:34:28.815Z,56.85
2022-08-16T04:37:01.251Z,58.11
2022-08-16T04:39:45.912Z,60.05
2022-08-16T04:42:17.752Z,61.79
2022-08-16T04:44:53.938Z,64.70
2022-08-16T04:47:33.104Z,63.01
2022-08-16T04:50:20.000Z,57.33
2022-08-16T04:52:49.707Z,56.57
2022-08-16T04:55:21.506Z,58.13
2022-08-16T04:58:00.006Z,60.00
2022-08-16T05:00:34.334Z,61.52
2022-08-16T05:03:08.395Z,64.63
2022-08-16T05:05:55.415Z,62.63
2022-08-16T05:08:30.714Z,56.70
2022-08-16T05:11:03.534Z,56.60
2022-08-16T05:13:41.112Z,58.01
2022-08-16T05:16:20.082Z,59.63
2022-08-16T05:18:51.105Z,61.10
2022-08-16T05:21:20.768Z,64.58
2022-08-16T05:23:55.860Z,61.72
2022-08-16T05:26:28.873Z,56.26
2022-08-16T05:28:58.578Z,55.88
2022-08-16T05:31:29.988Z,57.04
2022-08-16T05:34:04.521Z,58.72
2022-08-16T05:36:34.358Z,60.65
2022-08-16T05:39:09.416Z,61.80
2022-08-16T05:41:44.551Z,64.93
2022-08-16T05:44:23.160Z,62.74
2022-08-16T05:47:00.196Z,56.68
2022-08-16T05:49:38.657Z,56.34
2022-08-16T05:52:11.693Z,57.82
2022-08-16T05:54:47.329Z,59.41
2022-08-16T05:57:20.543Z,60.83
2022-08-16T05:59:50.674Z,63.96
2022-08-16T06:02:33.417Z,61.89
2022-08-16T06:05:02.360Z,55.96
2022-08-16T06:07:32.336Z,54.76
2022-08-16T06:10:01.540Z,55.62
2022-08-16T06:12:31.010Z,57.75
2022-08-16T06:15:07.683Z,59.11
2022-08-16T06:17:42.421Z,60.25
2022-08-16T06:20:23.553Z,61.53
2022-08-16T06:22:58.901Z,64.19
2022-08-16T06:25:36.643Z,61.98
2022-08-16T06:28:10.327Z,55.43
2022-08-16T06:30:45.809Z,54.88
2022-08-16T06:33:19.808Z,56.24
2022-08-16T06:35:54.901Z,57.60
2022-08-16T06:38:33.696Z,59.10
2022-08-16T06:41:05.503Z,60.41
2022-08-16T06:43:34.421Z,61.56
2022-08-16T06:46:09.906Z,64.60
2022-08-16T06:48:42.807Z,62.03
2022-08-16T06:51:11.071Z,56.32
2022-08-16T06:53:38.708Z,55.20
2022-08-16T06:56:14.176Z,56.29
2022-08-16T06:58:48.218Z,57.42
2022-08-16T07:01:21.412Z,59.19
2022-08-16T07:03:55.457Z,59.80
2022-08-16T07:06:26.606Z,61.19
2022-08-16T07:08:54.977Z,63.84
2022-08-16T07:11:45.786Z,62.50
2022-08-16T07:14:26.405Z,56.34
2022-08-16T07:16:57.811Z,54.98
2022-08-16T07:20:02.547Z,55.64
2022-08-16T07:22:37.605Z,55.38
2022-08-16T07:25:12.413Z,54.38
2022-08-16T07:27:41.560Z,53.41
2022-08-16T07:30:45.247Z,53.46
2022-08-16T07:33:02.482Z,51.51
2022-08-16T07:35:30.486Z,52.33
2022-08-16T07:37:59.037Z,50.63
2022-08-16T07:40:56.276Z,49.61
2022-08-16T07:43:14.832Z,49.35
2022-08-16T07:45:43.251Z,49.64
2022-08-16T07:48:14.132Z,50.54
2022-08-16T07:50:55.673Z,50.78
2022-08-16T07:53:31.269Z,52.04
2022-08-16T07:56:04.308Z,52.29
2022-08-16T07:58:36.148Z,53.20
2022-08-16T08:01:10.551Z,54.54
2022-08-16T08:03:48.318Z,54.79
2022-08-16T08:06:28.702Z,55.47
2022-08-16T08:08:59.348Z,56.44
2022-08-16T08:11:29.602Z,56.94
2022-08-16T08:14:03.139Z,57.63
2022-08-16T08:16:33.258Z,58.24
2022-08-16T08:19:02.406Z,58.37
2022-08-16T08:21:56.663Z,59.35
2022-08-16T08:24:32.059Z,59.38
2022-08-16T08:27:02.092Z,59.63
2022-08-16T08:29:37.390Z,59.76
2022-08-16T08:32:57.047Z,60.13
2022-08-16T08:35:03.007Z,60.32
2022-08-16T08:37:54.483Z,60.05
2022-08-16T08:40:26.767Z,60.89
2022-08-16T08:43:11.863Z,60.95
2022-08-16T08:45:52.836Z,61.52
2022-08-16T08:48:33.681Z,61.61
2022-08-16T08:51:09.179Z,61.82
2022-08-16T08:53:38.243Z,64.27
2022-08-16T08:56:23.641Z,61.66
2022-08-16T08:58:58.262Z,55.61
2022-08-16T09:01:36.817Z,53.73
2022-08-16T09:04:14.389Z,54.11
2022-08-16T09:06:44.348Z,54.82
2022-08-16T09:09:17.035Z,54.78
2022-08-16T09:11:53.524Z,55.11
2022-08-16T09:14:26.243Z,56.40
2022-08-16T09:17:03.466Z,56.88
2022-08-16T09:19:42.224Z,57.29
2022-08-16T09:22:20.134Z,57.82
2022-08-16T09:24:52.859Z,58.12
2022-08-16T09:27:23.351Z,57.84
2022-08-16T09:30:00.102Z,57.63
2022-08-16T09:32:31.177Z,57.93
2022-08-16T09:35:01.590Z,57.67
2022-08-16T09:37:36.898Z,57.71
2022-08-16T09:40:32.082Z,57.94
2022-08-16T09:42:59.445Z,58.14
2022-08-16T09:45:29.068Z,58.48
2022-08-16T09:47:58.499Z,58.40
2022-08-16T09:50:37.211Z,58.31
2022-08-16T09:53:16.656Z,57.53
2022-08-16T09:55:49.347Z,57.74
2022-08-16T09:58:41.564Z,57.22
2022-08-16T10:01:08.494Z,57.56
2022-08-16T10:03:36.490Z,57.62
2022-08-16T10:06:04.918Z,57.34
2022-08-16T10:08:33.253Z,56.64
2022-08-16T10:11:50.276Z,56.29
2022-08-16T10:14:19.895Z,56.36
2022-08-16T10:16:59.564Z,56.09
2022-08-16T10:19:31.962Z,55.66
2022-08-16T10:22:05.077Z,55.18
2022-08-16T10:24:33.903Z,55.57
2022-08-16T10:27:26.036Z,55.71
2022-08-16T10:30:00.432Z,54.58
2022-08-16T10:32:31.999Z,54.54
2022-08-16T10:35:00.368Z,53.83
2022-08-16T10:37:35.805Z,54.43
2022-08-16T10:40:28.977Z,53.82
2022-08-16T10:42:57.069Z,53.92
2022-08-16T10:45:25.581Z,53.65
2022-08-16T10:48:00.831Z,54.13
2022-08-16T10:50:32.717Z,53.11
2022-08-16T10:53:07.347Z,53.22
2022-08-16T10:55:40.888Z,53.36
2022-08-16T10:58:17.066Z,53.46
2022-08-16T11:00:46.971Z,53.47
2022-08-16T11:06:07.525Z,52.67
2022-08-16T11:08:41.952Z,52.31
2022-08-16T11:11:19.845Z,52.44
2022-08-16T11:14:11.075Z,52.58
2022-08-16T11:19:25.669Z,52.46
2022-08-16T11:22:38.862Z,52.17
2022-08-16T11:24:44.949Z,52.12
2022-08-16T11:27:22.939Z,50.91
2022-08-16T11:29:56.029Z,51.36
2022-08-16T11:32:31.908Z,51.56
2022-08-16T11:35:14.369Z,50.89
2022-08-16T11:38:46.512Z,51.17
2022-08-16T11:40:52.759Z,51.15
2022-08-16T11:43:28.027Z,51.44
2022-08-16T11:45:57.805Z,51.34
2022-08-16T11:48:31.102Z,51.11
2022-08-16T11:50:59.634Z,50.73
2022-08-16T11:53:29.450Z,50.85
2022-08-16T11:56:04.504Z,50.45
2022-08-16T11:58:34.278Z,50.46
2022-08-16T12:01:02.048Z,50.87
2022-08-16T12:03:35.141Z,50.67
2022-08-16T12:06:25.293Z,50.54
2022-08-16T12:09:00.937Z,50.58
2022-08-16T12:11:32.039Z,50.58
2022-08-16T12:14:07.671Z,50.72
2022-08-16T12:16:37.082Z,50.71
2022-08-16T12:19:10.700Z,50.36
2022-08-16T12:21:58.312Z,50.41
2022-08-16T12:24:28.314Z,50.47
2022-08-16T12:26:56.928Z,50.07
2022-08-16T12:29:25.794Z,49.97
2022-08-16T12:32:26.561Z,50.11
2022-08-16T12:34:50.829Z,49.51
2022-08-16T12:37:24.298Z,49.55
2022-08-16T12:39:56.151Z,49.37
2022-08-16T12:42:34.700Z,49.93
2022-08-16T12:45:11.066Z,49.19
2022-08-16T12:48:16.054Z,49.28
2022-08-16T12:50:49.444Z,49.85
2022-08-16T12:53:20.825Z,49.90
2022-08-16T12:55:49.588Z,49.88
2022-08-16T12:58:47.193Z,50.06
2022-08-16T13:01:09.438Z,50.54
2022-08-16T13:03:41.055Z,50.01
2022-08-16T13:06:09.044Z,49.90
2022-08-16T13:08:36.872Z,49.68
2022-08-16T13:11:07.777Z,49.82
2022-08-16T13:13:36.255Z,49.83
2022-08-16T13:16:15.274Z,50.15
2022-08-16T13:18:52.367Z,49.73
2022-08-16T13:21:23.822Z,49.47
2022-08-16T13:23:55.159Z,49.48
2022-08-16T13:26:26.318Z,49.60
2022-08-16T13:28:55.307Z,49.33
2022-08-16T13:31:24.120Z,48.56
2022-08-16T13:33:55.729Z,48.35
2022-08-16T13:36:47.890Z,48.42
2022-08-16T13:39:15.514Z,48.64
2022-08-16T13:41:44.455Z,48.74
2022-08-16T13:44:22.147Z,48.89
2022-08-16T13:47:04.319Z,48.84
2022-08-16T13:49:34.599Z,48.38
2022-08-16T13:52:03.934Z,48.35
2022-08-16T13:54:34.633Z,48.00
2022-08-16T13:57:03.313Z,48.34
2022-08-16T13:59:31.117Z,48.19
2022-08-16T14:02:05.689Z,47.62
2022-08-16T14:04:36.546Z,47.72
2022-08-16T14:07:08.952Z,48.03
2022-08-16T14:09:37.814Z,48.19
2022-08-16T14:12:17.871Z,48.18
2022-08-16T14:14:46.915Z,47.63
2022-08-16T14:17:15.067Z,47.01
2022-08-16T14:19:46.028Z,47.08
2022-08-16T14:22:30.417Z,46.83
2022-08-16T14:25:00.429Z,46.85
2022-08-16T14:27:29.850Z,46.64
2022-08-16T14:29:59.185Z,46.78
2022-08-16T14:32:33.099Z,46.39
2022-08-16T14:35:07.396Z,46.52
2022-08-16T14:37:36.171Z,45.94
2022-08-16T14:40:10.612Z,45.83
2022-08-16T14:42:41.185Z,44.93
2022-08-16T14:45:15.990Z,44.81
2022-08-16T14:47:45.220Z,44.89
2022-08-16T14:50:17.361Z,45.13
2022-08-16T14:52:59.118Z,45.29
2022-08-16T14:55:29.148Z,45.61
2022-08-16T14:57:58.117Z,45.32
2022-08-16T15:00:34.568Z,45.44
2022-08-16T15:03:09.570Z,44.92
2022-08-16T15:05:40.895Z,44.71
2022-08-16T15:08:10.110Z,44.56
2022-08-16T15:10:42.854Z,44.81
2022-08-16T15:13:14.890Z,44.84
2022-08-16T15:15:43.624Z,44.46
2022-08-16T15:18:13.972Z,44.64
2022-08-16T15:20:53.144Z,44.28
2022-08-16T15:23:20.890Z,43.94
2022-08-16T15:26:02.573Z,44.46
2022-08-16T15:28:33.385Z,44.30
2022-08-16T15:31:03.069Z,44.54
2022-08-16T15:33:39.401Z,44.16
2022-08-16T15:36:18.322Z,44.34
2022-08-16T15:39:03.786Z,44.45
2022-08-16T15:41:42.980Z,44.15
2022-08-16T15:44:22.418Z,43.98
2022-08-16T15:47:02.665Z,43.74
2022-08-16T15:49:37.934Z,43.49
2022-08-16T15:52:29.779Z,43.65
2022-08-16T15:55:12.792Z,43.60
2022-08-16T15:57:43.402Z,43.26
2022-08-16T16:00:14.903Z,42.38
2022-08-16T16:03:01.980Z,42.17
2022-08-16T16:05:29.833Z,42.47
2022-08-16T16:08:11.059Z,41.74
2022-08-16T16:10:43.390Z,42.38
2022-08-16T16:13:12.291Z,42.45
2022-08-16T16:15:43.830Z,42.51
2022-08-16T16:18:12.754Z,42.44
2022-08-16T16:20:56.060Z,43.08
2022-08-16T16:23:28.177Z,43.21
2022-08-16T16:25:58.125Z,43.25
2022-08-16T16:28:46.049Z,42.75
2022-08-16T16:31:18.609Z,43.26
2022-08-16T16:33:50.453Z,43.34
2022-08-16T16:36:24.254Z,43.26
2022-08-16T16:38:54.681Z,43.20
2022-08-16T16:41:26.568Z,43.39
2022-08-16T16:43:56.006Z,43.69
2022-08-16T16:46:42.056Z,43.68
2022-08-16T16:49:14.147Z,43.89
2022-08-16T16:51:44.355Z,44.01
2022-08-16T16:54:13.634Z,44.00
2022-08-16T16:56:58.153Z,43.89
2022-08-16T16:59:28.125Z,43.91
2022-08-16T17:02:41.232Z,43.91
2022-08-16T17:04:48.373Z,43.93
2022-08-16T17:07:16.719Z,43.86
2022-08-16T17:09:46.898Z,44.08
2022-08-16T17:12:25.313Z,44.08
2022-08-16T17:15:05.274Z,44.44
2022-08-16T17:17:59.264Z,44.65
2022-08-16T17:20:22.801Z,44.32
2022-08-16T17:22:54.767Z,44.69
2022-08-16T17:25:25.073Z,44.86
2022-08-16T17:27:52.866Z,45.16
2022-08-16T17:30:29.307Z,45.46
2022-08-16T17:33:02.970Z,45.71
2022-08-16T17:35:43.677Z,46.04
2022-08-16T17:38:12.106Z,46.38
2022-08-16T17:41:00.003Z,46.76
2022-08-16T17:43:35.070Z,47.46
2022-08-16T17:46:06.183Z,48.17
2022-08-16T17:48:54.689Z,49.26
2022-08-16T17:51:27.641Z,51.66
2022-08-16T17:53:56.779Z,52.37
2022-08-16T17:56:24.432Z,52.97
2022-08-16T17:58:52.321Z,53.59
2022-08-16T18:01:25.613Z,54.27
2022-08-16T18:04:06.962Z,54.30
2022-08-16T18:06:39.722Z,53.62
2022-08-16T18:09:08.458Z,53.85
2022-08-16T18:11:42.909Z,53.56
2022-08-16T18:14:13.266Z,53.90
2022-08-16T18:16:41.586Z,55.06
2022-08-16T18:19:10.705Z,55.41
2022-08-16T18:21:57.225Z,55.66
2022-08-16T18:24:28.997Z,55.69
2022-08-16T18:26:56.698Z,56.22
2022-08-16T18:29:46.042Z,56.06
2022-08-16T18:32:17.422Z,56.58
2022-08-16T18:34:51.647Z,57.31
2022-08-16T18:37:19.575Z,57.51
2022-08-16T18:39:47.307Z,58.51
2022-08-16T18:42:15.734Z,58.89
2022-08-16T18:44:44.569Z,58.62
2022-08-16T18:47:12.281Z,58.22
2022-08-16T18:49:40.162Z,59.01
2022-08-16T18:52:08.441Z,58.91
2022-08-16T18:55:02.942Z,59.04
2022-08-16T18:57:26.659Z,59.00
2022-08-16T18:59:54.381Z,59.81
2022-08-16T19:02:57.071Z,60.04
2022-08-16T19:05:25.808Z,60.10
2022-08-16T19:07:53.524Z,60.35
2022-08-16T19:10:21.457Z,60.39
2022-08-16T19:12:49.437Z,59.76
2022-08-16T19:15:21.816Z,60.05
2022-08-16T19:17:49.495Z,60.37
2022-08-16T19:20:20.635Z,60.77
2022-08-16T19:23:05.012Z,60.47
2022-08-16T19:25:46.732Z,60.27
2022-08-16T19:28:50.548Z,60.31
2022-08-16T19:31:20.645Z,60.47
2022-08-16T19:33:54.119Z,60.71
2022-08-16T19:36:35.155Z,61.01
2022-08-16T19:39:08.674Z,61.51
2022-08-16T19:41:40.139Z,64.95
2022-08-16T19:44:09.318Z,62.75
2022-08-16T19:46:38.209Z,56.67
2022-08-16T19:49:06.198Z,54.90
2022-08-16T19:51:34.165Z,54.86
2022-08-16T19:54:01.998Z,54.43
2022-08-16T19:56:29.830Z,54.30
2022-08-16T20:01:46.413Z,55.97
2022-08-16T20:04:14.267Z,56.38
2022-08-16T20:06:42.773Z,56.27
2022-08-16T20:09:15.035Z,56.55
2022-08-16T20:11:45.189Z,56.66
2022-08-16T20:14:19.312Z,57.39
2022-08-16T20:16:58.242Z,58.25
2022-08-16T20:19:28.053Z,58.18
2022-08-16T20:22:01.012Z,58.18
2022-08-16T20:24:34.720Z,58.96
2022-08-16T20:27:07.743Z,60.09
2022-08-16T20:29:37.792Z,60.81
2022-08-16T20:32:07.398Z,59.87
2022-08-16T20:34:35.685Z,60.08
2022-08-16T20:37:05.228Z,60.46
2022-08-16T20:39:33.200Z,60.92
2022-08-16T20:42:01.268Z,61.37
2022-08-16T20:44:29.106Z,61.73
2022-08-16T20:46:56.907Z,61.67
2022-08-16T20:49:24.600Z,64.78
2022-08-16T20:51:57.239Z,63.13
2022-08-16T20:54:29.155Z,57.61
2022-08-16T20:56:57.086Z,55.65
2022-08-16T20:59:24.815Z,56.20
2022-08-16T21:01:52.607Z,57.33
2022-08-16T21:04:22.658Z,58.11
2022-08-16T21:06:53.829Z,58.87
2022-08-16T21:09:24.855Z,59.43
2022-08-16T21:11:55.043Z,59.57
2022-08-16T21:14:23.696Z,60.06
2022-08-16T21:16:51.448Z,60.20
2022-08-16T21:19:21.317Z,61.08
2022-08-16T21:21:49.549Z,64.59
2022-08-16T21:24:17.378Z,62.43
2022-08-16T21:26:53.911Z,56.53
2022-08-16T21:29:39.553Z,55.04
2022-08-16T21:32:15.288Z,55.37
2022-08-16T21:34:43.112Z,56.80
2022-08-16T21:37:12.186Z,57.35
2022-08-16T21:39:44.008Z,58.23
2022-08-16T21:42:16.714Z,59.34
2022-08-16T21:44:45.541Z,59.94
2022-08-16T21:47:13.479Z,60.27
2022-08-16T21:49:41.334Z,60.85
2022-08-16T21:52:09.937Z,64.23
2022-08-16T21:54:56.120Z,62.58
2022-08-16T21:57:24.609Z,56.71
2022-08-16T21:59:54.367Z,55.13
2022-08-16T22:02:24.648Z,55.72
2022-08-16T22:04:52.351Z,56.79
2022-08-16T22:07:20.437Z,57.73
2022-08-16T22:09:50.287Z,58.49
2022-08-16T22:12:24.149Z,59.47
2022-08-16T22:14:52.816Z,60.47
2022-08-16T22:17:20.626Z,61.35
2022-08-16T22:19:48.791Z,64.04
2022-08-16T22:22:16.538Z,62.11
2022-08-16T22:24:44.318Z,57.13
2022-08-16T22:27:12.025Z,55.39
2022-08-16T22:29:42.374Z,56.02
2022-08-16T22:32:10.321Z,57.08
2022-08-16T22:34:38.053Z,58.23
2022-08-16T22:37:05.808Z,59.28
2022-08-16T22:39:33.680Z,60.22
2022-08-16T22:42:08.265Z,61.01
2022-08-16T22:44:37.264Z,61.80
2022-08-16T22:47:05.222Z,65.12
2022-08-16T22:49:33.386Z,63.16
2022-08-16T22:52:07.336Z,57.13
2022-08-16T22:54:47.458Z,55.50
2022-08-16T22:57:16.916Z,56.36
2022-08-16T22:59:45.243Z,57.38
2022-08-16T23:02:13.201Z,58.65
2022-08-16T23:04:40.915Z,59.86
2022-08-16T23:07:08.695Z,60.77
2022-08-16T23:09:36.761Z,61.51
2022-08-16T23:12:07.432Z,64.66
2022-08-16T23:14:35.196Z,62.76
2022-08-16T23:17:03.377Z,56.72
2022-08-16T23:19:31.128Z,55.58
2022-08-16T23:21:58.839Z,56.20
2022-08-16T23:24:27.598Z,57.34
2022-08-16T23:26:55.473Z,58.51
2022-08-16T23:29:26.323Z,59.48
2022-08-16T23:32:08.630Z,60.63
2022-08-16T23:34:36.829Z,61.84
2022-08-16T23:37:06.683Z,65.08
2022-08-16T23:39:36.000Z,62.75
2022-08-16T23:42:13.094Z,56.71
2022-08-16T23:44:54.945Z,55.73
2022-08-16T23:47:25.400Z,56.58
2022-08-16T23:50:00.972Z,57.77
2022-08-16T23:52:40.610Z,58.98
2022-08-16T23:55:19.417Z,60.42
2022-08-16T23:57:47.545Z,61.78
